createdAt,value
2023-09-17T00:01:46.530Z,100430.03
2023-09-17T00:04:14.389Z,100437.69
2023-09-17T00:06:43.371Z,100437.94
2023-09-17T00:09:11.553Z,100432.50
2023-09-17T00:11:40.611Z,100428.97
2023-09-17T00:14:08.430Z,100429.69
2023-09-17T00:16:35.981Z,100430.19
2023-09-17T00:19:05.065Z,100428.16
2023-09-17T00:21:32.696Z,100430.66
2023-09-17T00:24:00.199Z,100430.59
2023-09-17T00:26:27.751Z,100433.19
2023-09-17T00:28:56.662Z,100433.47
2023-09-17T00:31:24.241Z,100431.59
2023-09-17T00:33:51.903Z,100433.84
2023-09-17T00:36:20.136Z,100437.34
2023-09-17T00:38:47.654Z,100432.34
2023-09-17T00:41:15.521Z,100443.56
2023-09-17T00:43:44.145Z,100433.63
2023-09-17T00:46:15.866Z,100438.56
2023-09-17T00:48:44.825Z,100435.66
2023-09-17T00:51:12.384Z,100431.19
2023-09-17T00:53:41.343Z,100428.16
2023-09-17T00:56:10.034Z,100429.47
2023-09-17T00:58:39.219Z,100425.25
2023-09-17T01:01:08.730Z,100419.88
2023-09-17T01:03:38.870Z,100411.63
2023-09-17T01:06:07.707Z,100407.56
2023-09-17T01:08:37.065Z,100408.56
2023-09-17T01:11:04.800Z,100416.25
2023-09-17T01:13:35.553Z,100417.41
2023-09-17T01:16:05.025Z,100410.84
2023-09-17T01:18:33.697Z,100410.06
2023-09-17T01:21:12.351Z,100404.50
2023-09-17T01:23:44.983Z,100408.88
2023-09-17T01:26:17.996Z,100419.31
2023-09-17T01:28:46.945Z,100413.97
2023-09-17T01:31:14.511Z,100412.88
2023-09-17T01:33:42.063Z,100407.91
2023-09-17T01:36:18.286Z,100407.84
2023-09-17T01:38:49.074Z,100401.50
2023-09-17T01:41:19.073Z,100414.44
2023-09-17T01:43:49.105Z,100411.25
2023-09-17T01:46:17.530Z,100410.19
2023-09-17T01:48:47.759Z,100417.91
2023-09-17T01:51:15.927Z,100415.31
2023-09-17T01:53:43.722Z,100422.34
2023-09-17T01:56:13.384Z,100421.84
2023-09-17T01:58:40.966Z,100423.19
2023-09-17T02:01:09.835Z,100417.53
2023-09-17T02:03:37.434Z,100419.78
2023-09-17T02:06:05.381Z,100425.81
2023-09-17T02:08:33.154Z,100425.09
2023-09-17T02:11:00.677Z,100417.56
2023-09-17T02:13:28.254Z,100416.47
2023-09-17T02:15:55.808Z,100425.13
2023-09-17T02:18:24.730Z,100429.53
2023-09-17T02:20:52.227Z,100429.72
2023-09-17T02:23:19.774Z,100426.34
2023-09-17T02:25:47.792Z,100420.06
2023-09-17T02:28:15.522Z,100410.94
2023-09-17T02:30:42.127Z,100416.28
2023-09-17T02:33:11.605Z,100415.38
2023-09-17T02:35:40.692Z,100427.28
2023-09-17T02:38:08.236Z,100434.09
2023-09-17T02:40:35.811Z,100431.78
2023-09-17T02:43:03.355Z,100433.44
2023-09-17T02:45:30.988Z,100434.13
2023-09-17T02:47:58.538Z,100433.72
2023-09-17T02:50:26.120Z,100435.75
2023-09-17T02:52:55.133Z,100433.34
2023-09-17T02:55:23.136Z,100424.44
2023-09-17T02:57:50.758Z,100428.53
2023-09-17T03:00:22.611Z,100431.25
2023-09-17T03:02:55.558Z,100441.38
2023-09-17T03:05:23.276Z,100437.88
2023-09-17T03:07:50.845Z,100437.53
2023-09-17T03:10:21.405Z,100432.53
2023-09-17T03:12:49.144Z,100434.50
2023-09-17T03:15:16.705Z,100436.63
2023-09-17T03:17:44.649Z,100431.41
2023-09-17T03:20:18.229Z,100437.00
2023-09-17T03:22:46.377Z,100433.03
2023-09-17T03:25:14.632Z,100426.03
2023-09-17T03:27:45.170Z,100423.72
2023-09-17T03:30:13.790Z,100428.19
2023-09-17T03:32:53.386Z,100428.16
2023-09-17T03:35:25.822Z,100431.69
2023-09-17T03:37:53.566Z,100420.47
2023-09-17T03:40:21.144Z,100425.94
2023-09-17T03:42:50.025Z,100425.94
2023-09-17T03:45:17.848Z,100432.75
2023-09-17T03:47:48.349Z,100427.72
2023-09-17T03:50:21.247Z,100423.25
2023-09-17T03:52:52.601Z,100417.53
2023-09-17T03:55:20.857Z,100422.66
2023-09-17T03:57:50.021Z,100425.47
2023-09-17T04:00:18.668Z,100420.19
2023-09-17T04:02:46.904Z,100416.31
2023-09-17T04:05:15.438Z,100413.88
2023-09-17T04:07:44.517Z,100420.31
2023-09-17T04:10:13.330Z,100421.09
2023-09-17T04:12:42.112Z,100423.22
2023-09-17T04:15:14.342Z,100429.31
2023-09-17T04:17:42.256Z,100428.47
2023-09-17T04:20:14.483Z,100436.09
2023-09-17T04:22:43.183Z,100429.31
2023-09-17T04:25:11.573Z,100429.88
2023-09-17T04:27:39.751Z,100426.16
2023-09-17T04:30:08.759Z,100430.25
2023-09-17T04:32:39.452Z,100430.84
2023-09-17T04:35:08.834Z,100434.47
2023-09-17T04:37:37.516Z,100438.78
2023-09-17T04:40:09.632Z,100431.16
2023-09-17T04:42:37.734Z,100436.09
2023-09-17T04:45:06.189Z,100434.91
2023-09-17T04:47:35.394Z,100439.47
2023-09-17T04:50:09.110Z,100437.38
2023-09-17T04:52:36.724Z,100443.56
2023-09-17T04:55:04.565Z,100442.53
2023-09-17T04:57:32.134Z,100447.91
2023-09-17T05:00:02.515Z,100449.19
2023-09-17T05:02:30.165Z,100448.03
2023-09-17T05:04:57.821Z,100437.72
2023-09-17T05:07:26.738Z,100449.78
2023-09-17T05:09:54.430Z,100446.03
2023-09-17T05:12:22.241Z,100444.03
2023-09-17T05:14:49.733Z,100452.69
2023-09-17T05:17:18.588Z,100447.31
2023-09-17T05:19:46.150Z,100449.41
2023-09-17T05:22:13.717Z,100456.47
2023-09-17T05:24:43.004Z,100457.63
2023-09-17T05:27:10.531Z,100452.16
2023-09-17T05:29:38.101Z,100459.38
2023-09-17T05:32:06.482Z,100460.00
2023-09-17T05:34:34.150Z,100466.19
2023-09-17T05:37:01.659Z,100467.84
2023-09-17T05:39:29.194Z,100468.63
2023-09-17T05:41:58.057Z,100472.28
2023-09-17T05:44:25.712Z,100485.81
2023-09-17T05:46:53.309Z,100481.00
2023-09-17T05:49:20.980Z,100483.81
2023-09-17T05:51:48.647Z,100492.25
2023-09-17T05:54:16.221Z,100494.81
2023-09-17T05:56:43.763Z,100500.19
2023-09-17T05:59:12.641Z,100501.41
2023-09-17T06:01:40.361Z,100496.56
2023-09-17T06:04:08.042Z,100491.50
2023-09-17T06:06:35.550Z,100500.41
2023-09-17T06:09:03.057Z,100497.38
2023-09-17T06:11:31.244Z,100512.47
2023-09-17T06:13:59.176Z,100505.53
2023-09-17T06:16:32.081Z,100505.28
2023-09-17T06:19:06.899Z,100511.22
2023-09-17T06:21:34.963Z,100509.50
2023-09-17T06:24:02.550Z,100508.72
2023-09-17T06:26:30.054Z,100515.03
2023-09-17T06:28:57.745Z,100506.06
2023-09-17T06:31:25.397Z,100504.75
2023-09-17T06:33:55.083Z,100517.53
2023-09-17T06:36:23.838Z,100505.03
2023-09-17T06:38:51.376Z,100505.28
2023-09-17T06:41:18.901Z,100507.94
2023-09-17T06:43:47.925Z,100510.28
2023-09-17T06:46:15.829Z,100511.63
2023-09-17T06:48:43.581Z,100509.56
2023-09-17T06:51:12.438Z,100518.53
2023-09-17T06:53:40.658Z,100507.69
2023-09-17T06:56:09.776Z,100512.50
2023-09-17T06:58:37.411Z,100512.13
2023-09-17T07:01:04.976Z,100507.84
2023-09-17T07:03:33.419Z,100508.50
2023-09-17T07:06:00.969Z,100507.78
2023-09-17T07:08:29.843Z,100508.72
2023-09-17T07:10:57.411Z,100511.75
2023-09-17T07:13:25.095Z,100513.00
2023-09-17T07:15:52.619Z,100506.63
2023-09-17T07:18:21.324Z,100510.41
2023-09-17T07:20:50.885Z,100507.19
2023-09-17T07:23:18.466Z,100514.88
2023-09-17T07:25:47.806Z,100511.03
2023-09-17T07:28:15.464Z,100508.41
2023-09-17T07:30:43.014Z,100508.78
2023-09-17T07:33:10.582Z,100510.56
2023-09-17T07:35:41.221Z,100511.84
2023-09-17T07:38:08.792Z,100512.09
2023-09-17T07:40:36.326Z,100520.16
2023-09-17T07:43:06.002Z,100523.84
2023-09-17T07:45:35.012Z,100521.69
2023-09-17T07:48:03.463Z,100518.50
2023-09-17T07:50:31.075Z,100526.97
2023-09-17T07:52:58.943Z,100526.06
2023-09-17T07:55:27.084Z,100529.88
2023-09-17T07:57:55.990Z,100520.00
2023-09-17T08:00:24.899Z,100517.75
2023-09-17T08:02:52.781Z,100522.97
2023-09-17T08:05:20.498Z,100523.50
2023-09-17T08:07:48.260Z,100523.78
2023-09-17T08:10:16.278Z,100528.06
2023-09-17T08:12:43.801Z,100522.38
2023-09-17T08:15:11.584Z,100527.06
2023-09-17T08:17:40.469Z,100522.34
2023-09-17T08:20:11.688Z,100516.34
2023-09-17T08:22:40.094Z,100516.66
2023-09-17T08:25:09.995Z,100517.66
2023-09-17T08:27:37.616Z,100520.50
2023-09-17T08:30:12.899Z,100521.72
2023-09-17T08:32:42.338Z,100532.59
2023-09-17T08:35:10.396Z,100531.09
2023-09-17T08:37:39.051Z,100531.16
2023-09-17T08:40:09.237Z,100528.56
2023-09-17T08:42:37.266Z,100531.91
2023-09-17T08:45:06.991Z,100537.88
2023-09-17T08:47:34.564Z,100532.97
2023-09-17T08:50:03.833Z,100539.00
2023-09-17T08:52:34.300Z,100542.00
2023-09-17T08:55:03.985Z,100536.25
2023-09-17T08:57:32.773Z,100531.97
2023-09-17T09:00:09.340Z,100532.19
2023-09-17T09:02:43.861Z,100525.72
2023-09-17T09:05:13.238Z,100529.28
2023-09-17T09:07:41.982Z,100519.47
2023-09-17T09:10:10.579Z,100520.84
2023-09-17T09:12:39.208Z,100518.91
2023-09-17T09:15:11.049Z,100525.75
2023-09-17T09:17:39.850Z,100522.22
2023-09-17T09:20:10.814Z,100524.41
2023-09-17T09:22:41.861Z,100523.56
2023-09-17T09:25:11.110Z,100524.38
2023-09-17T09:27:38.966Z,100521.66
2023-09-17T09:30:09.538Z,100518.38
2023-09-17T09:32:37.980Z,100524.91
2023-09-17T09:35:07.296Z,100514.84
2023-09-17T09:37:36.850Z,100514.59
2023-09-17T09:40:07.493Z,100505.91
2023-09-17T09:42:35.097Z,100523.84
2023-09-17T09:45:05.090Z,100524.38
2023-09-17T09:47:33.306Z,100519.22
2023-09-17T09:50:02.095Z,100515.13
2023-09-17T09:52:30.650Z,100509.16
2023-09-17T09:54:58.345Z,100506.69
2023-09-17T09:57:27.546Z,100506.94
2023-09-17T09:59:55.215Z,100498.25
2023-09-17T10:02:23.491Z,100503.94
2023-09-17T10:04:51.236Z,100510.19
2023-09-17T10:07:19.352Z,100500.91
2023-09-17T10:09:48.388Z,100499.97
2023-09-17T10:12:16.522Z,100490.16
2023-09-17T10:14:45.734Z,100490.03
2023-09-17T10:17:14.529Z,100484.13
2023-09-17T10:19:43.770Z,100493.19
2023-09-17T10:22:13.923Z,100485.06
2023-09-17T10:24:42.437Z,100466.44
2023-09-17T10:27:11.056Z,100483.59
2023-09-17T10:29:39.546Z,100478.75
2023-09-17T10:32:10.621Z,100478.84
2023-09-17T10:34:38.832Z,100476.13
2023-09-17T10:37:07.497Z,100479.78
2023-09-17T10:39:37.642Z,100468.88
2023-09-17T10:42:08.609Z,100462.72
2023-09-17T10:44:38.028Z,100468.72
2023-09-17T10:47:12.192Z,100472.03
2023-09-17T10:49:40.750Z,100465.41
2023-09-17T10:52:08.960Z,100469.75
2023-09-17T10:54:36.620Z,100461.81
2023-09-17T10:57:11.650Z,100463.47
2023-09-17T10:59:40.615Z,100451.19
2023-09-17T11:02:10.152Z,100454.88
2023-09-17T11:04:40.603Z,100466.50
2023-09-17T11:07:10.446Z,100453.25
2023-09-17T11:09:37.712Z,100456.16
2023-09-17T11:12:06.347Z,100456.41
2023-09-17T11:14:34.400Z,100448.03
2023-09-17T11:17:02.275Z,100451.22
2023-09-17T11:19:29.955Z,100439.72
2023-09-17T11:22:13.777Z,100447.63
2023-09-17T11:24:41.605Z,100434.16
2023-09-17T11:27:12.785Z,100434.78
2023-09-17T11:29:41.575Z,100432.84
2023-09-17T11:32:09.930Z,100428.00
2023-09-17T11:34:40.534Z,100422.63
2023-09-17T11:37:09.821Z,100432.31
2023-09-17T11:39:54.802Z,100430.31
2023-09-17T11:42:24.934Z,100430.34
2023-09-17T11:44:53.478Z,100429.31
2023-09-17T11:47:21.713Z,100427.44
2023-09-17T11:49:51.682Z,100423.16
2023-09-17T11:52:19.462Z,100426.78
2023-09-17T11:54:49.573Z,100418.84
2023-09-17T11:57:25.490Z,100417.75
2023-09-17T11:59:53.332Z,100422.94
2023-09-17T12:02:21.452Z,100422.03
2023-09-17T12:04:50.491Z,100427.63
2023-09-17T12:07:18.110Z,100427.47
2023-09-17T12:09:59.241Z,100429.16
2023-09-17T12:12:28.573Z,100421.16
2023-09-17T12:14:56.765Z,100421.56
2023-09-17T12:17:24.462Z,100419.22
2023-09-17T12:20:00.683Z,100417.41
2023-09-17T12:22:29.883Z,100418.97
2023-09-17T12:25:04.211Z,100420.94
2023-09-17T12:27:37.104Z,100417.34
2023-09-17T12:30:09.648Z,100407.72
2023-09-17T12:32:37.912Z,100410.97
2023-09-17T12:35:07.738Z,100416.44
2023-09-17T12:37:35.608Z,100417.06
2023-09-17T12:40:03.159Z,100409.53
2023-09-17T12:42:30.791Z,100412.94
2023-09-17T12:45:00.417Z,100414.03
2023-09-17T12:47:28.462Z,100411.06
2023-09-17T12:49:56.792Z,100419.97
2023-09-17T12:52:25.160Z,100411.25
2023-09-17T12:54:54.582Z,100421.38
2023-09-17T12:57:23.097Z,100413.63
2023-09-17T12:59:52.670Z,100420.75
2023-09-17T13:02:29.497Z,100411.25
2023-09-17T13:04:57.386Z,100413.72
2023-09-17T13:07:27.350Z,100411.97
2023-09-17T13:09:56.727Z,100410.28
2023-09-17T13:12:25.181Z,100399.81
2023-09-17T13:14:53.541Z,100401.44
2023-09-17T13:17:24.256Z,100395.56
2023-09-17T13:19:52.624Z,100407.72
2023-09-17T13:22:21.547Z,100401.25
2023-09-17T13:24:49.760Z,100393.75
2023-09-17T13:27:18.274Z,100398.84
2023-09-17T13:29:49.738Z,100390.63
2023-09-17T13:32:19.021Z,100386.34
2023-09-17T13:34:48.470Z,100387.25
2023-09-17T13:37:17.272Z,100395.78
2023-09-17T13:39:46.692Z,100384.22
2023-09-17T13:42:14.506Z,100375.69
2023-09-17T13:44:42.032Z,100378.88
2023-09-17T13:47:12.113Z,100372.34
2023-09-17T13:49:40.186Z,100368.16
2023-09-17T13:52:09.576Z,100361.22
2023-09-17T13:54:38.543Z,100357.06
2023-09-17T13:57:06.367Z,100353.16
2023-09-17T13:59:33.893Z,100352.06
2023-09-17T14:02:03.087Z,100344.69
2023-09-17T14:04:30.852Z,100341.41
2023-09-17T14:06:58.978Z,100338.78
2023-09-17T14:09:27.959Z,100333.34
2023-09-17T14:11:55.692Z,100328.63
2023-09-17T14:14:23.399Z,100330.75
2023-09-17T14:16:51.009Z,100322.84
2023-09-17T14:19:20.079Z,100320.41
2023-09-17T14:21:49.037Z,100315.84
2023-09-17T14:24:16.965Z,100313.50
2023-09-17T14:26:46.081Z,100314.75
2023-09-17T14:29:13.892Z,100317.25
2023-09-17T14:31:44.312Z,100319.28
2023-09-17T14:34:12.661Z,100307.38
2023-09-17T14:36:40.578Z,100308.50
2023-09-17T14:39:10.694Z,100305.59
2023-09-17T14:41:39.884Z,100305.97
2023-09-17T14:44:09.416Z,100298.06
2023-09-17T14:46:39.414Z,100307.47
2023-09-17T14:49:07.392Z,100301.16
2023-09-17T14:51:34.914Z,100301.75
2023-09-17T14:54:02.690Z,100293.03
2023-09-17T14:56:31.715Z,100287.09
2023-09-17T14:58:59.321Z,100288.47
2023-09-17T15:01:53.118Z,100280.97
2023-09-17T15:04:15.870Z,100270.72
2023-09-17T15:06:43.469Z,100271.59
2023-09-17T15:09:11.330Z,100270.28
2023-09-17T15:11:38.838Z,100272.91
2023-09-17T15:14:06.498Z,100267.66
2023-09-17T15:16:35.424Z,100266.63
2023-09-17T15:19:02.954Z,100273.63
2023-09-17T15:21:30.444Z,100279.16
2023-09-17T15:23:58.050Z,100273.59
2023-09-17T15:26:26.570Z,100268.75
2023-09-17T15:28:54.403Z,100266.50
2023-09-17T15:31:22.171Z,100272.97
2023-09-17T15:33:51.276Z,100272.34
2023-09-17T15:36:19.069Z,100269.50
2023-09-17T15:38:46.930Z,100267.31
2023-09-17T15:41:14.588Z,100271.97
2023-09-17T15:43:43.467Z,100266.69
2023-09-17T15:46:11.056Z,100272.47
2023-09-17T15:48:38.601Z,100274.38
2023-09-17T15:51:07.623Z,100273.16
2023-09-17T15:53:35.126Z,100271.03
2023-09-17T15:56:02.670Z,100274.91
2023-09-17T15:58:30.207Z,100273.78
2023-09-17T16:00:57.720Z,100273.16
2023-09-17T16:03:25.587Z,100276.16
2023-09-17T16:05:54.029Z,100279.19
2023-09-17T16:08:23.945Z,100278.06
2023-09-17T16:10:51.528Z,100264.91
2023-09-17T16:13:19.527Z,100270.78
2023-09-17T16:15:47.049Z,100265.38
2023-09-17T16:18:14.659Z,100265.97
2023-09-17T16:20:42.322Z,100258.88
2023-09-17T16:23:10.003Z,100260.81
2023-09-17T16:25:40.226Z,100251.94
2023-09-17T16:28:07.964Z,100250.28
2023-09-17T16:30:35.466Z,100250.41
2023-09-17T16:33:03.074Z,100246.06
2023-09-17T16:35:30.644Z,100247.00
2023-09-17T16:37:58.383Z,100245.22
2023-09-17T16:40:25.934Z,100242.22
2023-09-17T16:43:07.304Z,100259.31
2023-09-17T16:45:38.331Z,100251.66
2023-09-17T16:48:06.369Z,100250.88
2023-09-17T16:50:34.017Z,100248.16
2023-09-17T16:53:01.587Z,100251.72
2023-09-17T16:55:29.423Z,100246.00
2023-09-17T16:57:57.505Z,100244.56
2023-09-17T17:00:25.297Z,100239.13
2023-09-17T17:02:53.137Z,100236.31
2023-09-17T17:05:21.220Z,100237.22
2023-09-17T17:07:48.835Z,100227.88
2023-09-17T17:10:16.562Z,100235.09
2023-09-17T17:12:44.069Z,100229.94
2023-09-17T17:15:13.048Z,100224.56
2023-09-17T17:17:40.763Z,100228.22
2023-09-17T17:20:09.445Z,100229.97
2023-09-17T17:22:44.509Z,100216.44
2023-09-17T17:25:12.039Z,100215.34
2023-09-17T17:27:40.141Z,100211.41
2023-09-17T17:30:11.076Z,100212.31
2023-09-17T17:32:41.674Z,100217.31
2023-09-17T17:35:10.520Z,100220.31
2023-09-17T17:37:38.156Z,100218.75
2023-09-17T17:40:06.610Z,100223.72
2023-09-17T17:42:34.131Z,100207.16
2023-09-17T17:45:01.636Z,100211.00
2023-09-17T17:47:33.545Z,100215.91
2023-09-17T17:50:02.508Z,100213.78
2023-09-17T17:52:30.087Z,100215.16
2023-09-17T17:54:57.720Z,100212.44
2023-09-17T17:57:25.249Z,100204.03
2023-09-17T17:59:52.793Z,100206.47
2023-09-17T18:02:20.635Z,100204.84
2023-09-17T18:04:48.201Z,100202.66
2023-09-17T18:07:17.218Z,100204.81
2023-09-17T18:09:45.137Z,100202.66
2023-09-17T18:12:13.641Z,100207.50
2023-09-17T18:14:41.444Z,100211.59
2023-09-17T18:17:09.024Z,100216.72
2023-09-17T18:19:36.645Z,100214.81
2023-09-17T18:22:04.444Z,100213.16
2023-09-17T18:24:33.310Z,100219.94
2023-09-17T18:27:00.797Z,100215.00
2023-09-17T18:29:31.266Z,100215.78
2023-09-17T18:31:59.289Z,100214.69
2023-09-17T18:34:28.359Z,100212.22
2023-09-17T18:36:56.606Z,100211.66
2023-09-17T18:39:24.236Z,100217.63
2023-09-17T18:41:53.228Z,100206.47
2023-09-17T18:44:20.932Z,100210.25
2023-09-17T18:46:49.065Z,100215.66
2023-09-17T18:49:19.652Z,100215.94
2023-09-17T18:51:47.596Z,100219.44
2023-09-17T18:54:15.557Z,100214.78
2023-09-17T18:56:43.576Z,100209.38
2023-09-17T18:59:12.794Z,100203.97
2023-09-17T19:01:41.302Z,100200.16
2023-09-17T19:04:09.147Z,100194.47
2023-09-17T19:06:37.192Z,100194.53
2023-09-17T19:09:06.611Z,100200.72
2023-09-17T19:11:34.516Z,100189.91
2023-09-17T19:14:02.419Z,100186.09
2023-09-17T19:16:31.658Z,100195.81
2023-09-17T19:18:59.288Z,100186.56
2023-09-17T19:21:26.882Z,100189.25
2023-09-17T19:23:54.877Z,100182.75
2023-09-17T19:26:22.969Z,100194.66
2023-09-17T19:28:50.762Z,100193.56
2023-09-17T19:31:18.417Z,100194.56
2023-09-17T19:33:47.840Z,100196.72
2023-09-17T19:36:15.521Z,100190.19
2023-09-17T19:38:43.391Z,100186.66
2023-09-17T19:41:11.147Z,100177.41
2023-09-17T19:43:41.790Z,100177.94
2023-09-17T19:46:09.467Z,100182.81
2023-09-17T19:48:36.998Z,100195.25
2023-09-17T19:51:10.079Z,100191.69
2023-09-17T19:53:39.618Z,100188.47
2023-09-17T19:56:07.203Z,100188.94
2023-09-17T19:58:34.820Z,100187.41
2023-09-17T20:01:03.749Z,100181.13
2023-09-17T20:03:31.475Z,100176.50
2023-09-17T20:06:00.192Z,100168.91
2023-09-17T20:08:29.107Z,100175.91
2023-09-17T20:10:56.918Z,100174.78
2023-09-17T20:13:25.139Z,100167.44
2023-09-17T20:15:52.744Z,100165.00
2023-09-17T20:18:20.315Z,100160.09
2023-09-17T20:20:48.308Z,100148.69
2023-09-17T20:23:16.159Z,100147.09
2023-09-17T20:25:47.586Z,100143.50
2023-09-17T20:28:15.333Z,100148.63
2023-09-17T20:30:45.075Z,100147.47
2023-09-17T20:33:12.860Z,100142.91
2023-09-17T20:35:40.597Z,100139.69
2023-09-17T20:38:08.342Z,100137.00
2023-09-17T20:40:36.101Z,100139.69
2023-09-17T20:43:05.208Z,100142.41
2023-09-17T20:45:33.084Z,100140.78
2023-09-17T20:48:00.897Z,100139.16
2023-09-17T20:50:28.879Z,100136.47
2023-09-17T20:52:57.402Z,100135.34
2023-09-17T20:55:27.624Z,100129.41
2023-09-17T20:57:55.473Z,100137.00
2023-09-17T21:00:24.894Z,100124.78
2023-09-17T21:02:53.870Z,100118.81
2023-09-17T21:05:22.562Z,100124.50
2023-09-17T21:07:50.442Z,100121.25
2023-09-17T21:10:17.964Z,100122.63
2023-09-17T21:12:45.501Z,100110.94
2023-09-17T21:15:13.046Z,100112.56
2023-09-17T21:17:44.304Z,100117.16
2023-09-17T21:20:19.498Z,100110.41
2023-09-17T21:22:49.043Z,100103.91
2023-09-17T21:25:17.540Z,100106.59
2023-09-17T21:27:46.955Z,100110.59
2023-09-17T21:30:14.906Z,100099.50
2023-09-17T21:32:44.958Z,100104.38
2023-09-17T21:35:12.960Z,100103.28
2023-09-17T21:37:40.682Z,100095.16
2023-09-17T21:40:09.378Z,100092.44
2023-09-17T21:42:37.222Z,100087.03
2023-09-17T21:45:05.561Z,100078.38
2023-09-17T21:47:33.256Z,100088.66
2023-09-17T21:50:02.913Z,100086.50
2023-09-17T21:52:31.046Z,100084.34
2023-09-17T21:54:59.430Z,100083.22
2023-09-17T21:57:27.568Z,100073.97
2023-09-17T21:59:55.189Z,100075.59
2023-09-17T22:02:23.209Z,100068.53
2023-09-17T22:04:50.883Z,100065.03
2023-09-17T22:07:19.758Z,100058.53
2023-09-17T22:09:47.292Z,100067.44
2023-09-17T22:12:15.564Z,100072.28
2023-09-17T22:14:43.140Z,100065.25
2023-09-17T22:17:11.662Z,100069.31
2023-09-17T22:19:41.675Z,100072.53
2023-09-17T22:22:09.784Z,100067.13
2023-09-17T22:24:43.902Z,100075.41
2023-09-17T22:27:13.073Z,100073.72
2023-09-17T22:29:42.529Z,100059.97
2023-09-17T22:32:10.093Z,100055.09
2023-09-17T22:34:37.647Z,100058.38
2023-09-17T22:37:05.303Z,100049.53
2023-09-17T22:39:32.832Z,100043.03
2023-09-17T22:42:01.704Z,100041.94
2023-09-17T22:44:29.258Z,100032.75
2023-09-17T22:46:56.850Z,100030.56
2023-09-17T22:49:24.607Z,100032.75
2023-09-17T22:51:52.114Z,100028.41
2023-09-17T22:54:20.634Z,100017.47
2023-09-17T22:56:48.136Z,100016.94
2023-09-17T22:59:16.991Z,100013.22
2023-09-17T23:01:44.639Z,100018.34
2023-09-17T23:04:12.169Z,100006.72
2023-09-17T23:06:39.744Z,100004.81
2023-09-17T23:09:09.535Z,100001.31
2023-09-17T23:11:37.124Z,99996.97
2023-09-17T23:14:06.823Z,100002.88
2023-09-17T23:16:36.316Z,99996.38
2023-09-17T23:19:07.079Z,99995.28
2023-09-17T23:21:34.953Z,100001.22
2023-09-17T23:24:03.274Z,99995.28
2023-09-17T23:26:30.835Z,99989.31
2023-09-17T23:28:59.186Z,99985.00
2023-09-17T23:31:28.278Z,99983.91
2023-09-17T23:33:57.488Z,99987.16
2023-09-17T23:36:28.431Z,99986.63
2023-09-17T23:38:56.413Z,99977.13
2023-09-17T23:41:24.739Z,99966.56
2023-09-17T23:43:52.398Z,99970.38
2023-09-17T23:46:23.068Z,99968.72
2023-09-17T23:48:50.962Z,99975.22
2023-09-17T23:51:20.057Z,99969.81
2023-09-17T23:53:47.610Z,99974.13
2023-09-17T23:56:15.146Z,99970.09
2023-09-17T23:58:42.692Z,99966.28
